EXS67DM EGNM-LTBS
Flight info
| Callsign | EXS67DM |
|---|---|
| Flight time | N/A |
| Altitude | 35000 |
| Route | EGNM/32 LAMIX L603 DOLAS DCT NAVPI DCT DODEN DCT NEGIX DCT DINKU DCT BESNI DCT LATLO/N0449F370 DCT OBEDI DCT AGLIB DCT VABEK UL603 OLOTA DCT RUGAS UN128 LMO UN127 RIKSO UP14 ODNOD/N0417F270 T491 SONUP |
| Aircraft | B738/M-SDE2E3FGHIRWXY/LB1 |
Departure
| Time | N/A |
|---|---|
| Airport | Leeds Bradford Airport (EGNM) |
Arrival
| Time | 2026-05-05 15:31 |
|---|---|
| Airport | Dalaman International Airport (LTBS) |
| Time | Latitude | Longitude | Altitude | Speed | Heading |
|---|---|---|---|---|---|
| 2026-05-05 14:28 | 41.34807 | 22.76662 | 34998 ft | 491 kts | 136° |
| 2026-05-05 14:29 | 41.29530 | 22.82302 | 35001 ft | 490 kts | 148° |
| 2026-05-05 14:29 | 41.23764 | 22.87138 | 34998 ft | 491 kts | 148° |
| 2026-05-05 14:30 | 41.18023 | 22.92039 | 34985 ft | 492 kts | 147° |
| 2026-05-05 14:30 | 41.12853 | 22.96559 | 34990 ft | 492 kts | 144° |
| 2026-05-05 14:31 | 41.07897 | 23.02735 | 34981 ft | 491 kts | 125° |
| 2026-05-05 14:31 | 41.04098 | 23.10243 | 34975 ft | 491 kts | 121° |
| 2026-05-05 14:32 | 41.00370 | 23.17815 | 34987 ft | 492 kts | 122° |
| 2026-05-05 14:32 | 40.96697 | 23.25001 | 34991 ft | 493 kts | 122° |
| 2026-05-05 14:33 | 40.92915 | 23.32385 | 34990 ft | 494 kts | 122° |
| 2026-05-05 14:33 | 40.89152 | 23.39751 | 34992 ft | 495 kts | 122° |
| 2026-05-05 14:34 | 40.85288 | 23.47300 | 34998 ft | 495 kts | 122° |
| 2026-05-05 14:34 | 40.81582 | 23.54517 | 34998 ft | 495 kts | 122° |
| 2026-05-05 14:35 | 40.77996 | 23.61486 | 35000 ft | 495 kts | 122° |
| 2026-05-05 14:35 | 40.74915 | 23.67459 | 35000 ft | 494 kts | 122° |
| 2026-05-05 14:36 | 40.71992 | 23.73116 | 35013 ft | 492 kts | 122° |
| 2026-05-05 14:36 | 40.69084 | 23.78734 | 35026 ft | 492 kts | 122° |
| 2026-05-05 14:37 | 40.66058 | 23.84570 | 35022 ft | 491 kts | 122° |
| 2026-05-05 14:37 | 40.62909 | 23.90632 | 35034 ft | 491 kts | 122° |
| 2026-05-05 14:38 | 40.59648 | 23.96897 | 35031 ft | 492 kts | 122° |
| 2026-05-05 14:38 | 40.56672 | 24.02590 | 35034 ft | 492 kts | 122° |
| 2026-05-05 14:39 | 40.53431 | 24.08765 | 35039 ft | 492 kts | 122° |
| 2026-05-05 14:39 | 40.49666 | 24.15925 | 35030 ft | 493 kts | 122° |
| 2026-05-05 14:40 | 40.45737 | 24.23382 | 35036 ft | 494 kts | 122° |
| 2026-05-05 14:40 | 40.41823 | 24.30798 | 35035 ft | 494 kts | 122° |
| 2026-05-05 14:41 | 40.37930 | 24.38156 | 35039 ft | 495 kts | 122° |
| 2026-05-05 14:41 | 40.34000 | 24.45567 | 35039 ft | 496 kts | 122° |
| 2026-05-05 14:42 | 40.30053 | 24.52993 | 35042 ft | 496 kts | 122° |
| 2026-05-05 14:42 | 40.26105 | 24.60401 | 35041 ft | 496 kts | 122° |
| 2026-05-05 14:43 | 40.22147 | 24.67813 | 35044 ft | 496 kts | 122° |
| 2026-05-05 14:43 | 40.18183 | 24.75216 | 35044 ft | 497 kts | 122° |
| 2026-05-05 14:44 | 40.14220 | 24.82602 | 35042 ft | 497 kts | 122° |
| 2026-05-05 14:44 | 40.10915 | 24.88747 | 35044 ft | 497 kts | 122° |
| 2026-05-05 14:45 | 40.06940 | 24.96124 | 35046 ft | 496 kts | 122° |
| 2026-05-05 14:45 | 40.02962 | 25.03489 | 35066 ft | 496 kts | 123° |
| 2026-05-05 14:46 | 39.98980 | 25.10843 | 35059 ft | 497 kts | 123° |
| 2026-05-05 14:46 | 39.94989 | 25.18201 | 35047 ft | 497 kts | 123° |
| 2026-05-05 14:47 | 39.90751 | 25.25308 | 35037 ft | 499 kts | 134° |
| 2026-05-05 14:47 | 39.85539 | 25.31263 | 35049 ft | 499 kts | 139° |
| 2026-05-05 14:48 | 39.80251 | 25.37107 | 35055 ft | 499 kts | 139° |
| 2026-05-05 14:48 | 39.74998 | 25.42994 | 35048 ft | 498 kts | 138° |
| 2026-05-05 14:49 | 39.69769 | 25.48906 | 35041 ft | 498 kts | 138° |
| 2026-05-05 14:49 | 39.64548 | 25.54808 | 35046 ft | 498 kts | 138° |
| 2026-05-05 14:50 | 39.59323 | 25.60697 | 35049 ft | 497 kts | 138° |
| 2026-05-05 14:50 | 39.54097 | 25.66573 | 35063 ft | 497 kts | 138° |
| 2026-05-05 14:51 | 39.48863 | 25.72443 | 35050 ft | 498 kts | 138° |
| 2026-05-05 14:51 | 39.43628 | 25.78304 | 35048 ft | 497 kts | 138° |
| 2026-05-05 14:52 | 39.38390 | 25.84157 | 35043 ft | 497 kts | 138° |
| 2026-05-05 14:52 | 39.33158 | 25.89993 | 35047 ft | 497 kts | 138° |
| 2026-05-05 14:53 | 39.27919 | 25.95811 | 35055 ft | 497 kts | 139° |
| 2026-05-05 14:53 | 39.22606 | 26.01525 | 35046 ft | 497 kts | 140° |
| 2026-05-05 14:54 | 39.17260 | 26.07208 | 35047 ft | 498 kts | 140° |
| 2026-05-05 14:54 | 39.11927 | 26.12891 | 35035 ft | 497 kts | 140° |
| 2026-05-05 14:55 | 39.06601 | 26.18573 | 35043 ft | 497 kts | 140° |
| 2026-05-05 14:55 | 39.01272 | 26.24247 | 35042 ft | 497 kts | 140° |
| 2026-05-05 14:56 | 38.95981 | 26.29870 | 35053 ft | 497 kts | 140° |
| 2026-05-05 14:56 | 38.90648 | 26.35527 | 35042 ft | 497 kts | 140° |
| 2026-05-05 14:57 | 38.85528 | 26.41448 | 35023 ft | 494 kts | 126° |
| 2026-05-05 14:57 | 38.83701 | 26.45145 | 35051 ft | 489 kts | 112° |
| 2026-05-05 14:57 | 38.82491 | 26.49176 | 35037 ft | 483 kts | 100° |
| 2026-05-05 14:58 | 38.81449 | 26.57618 | 35060 ft | 479 kts | 94° |
| 2026-05-05 14:58 | 38.80497 | 26.66076 | 35044 ft | 480 kts | 94° |
| 2026-05-05 14:59 | 38.79464 | 26.74553 | 35045 ft | 481 kts | 95° |
| 2026-05-05 14:59 | 38.78403 | 26.83031 | 35032 ft | 482 kts | 95° |
| 2026-05-05 15:00 | 38.77521 | 26.90073 | 35046 ft | 482 kts | 96° |
| 2026-05-05 15:00 | 38.76356 | 26.95647 | 35031 ft | 488 kts | 109° |
| 2026-05-05 15:00 | 38.74908 | 26.99587 | 35033 ft | 490 kts | 117° |
| 2026-05-05 15:01 | 38.70924 | 27.06700 | 35013 ft | 493 kts | 126° |
| 2026-05-05 15:01 | 38.66717 | 27.13624 | 35013 ft | 492 kts | 126° |
| 2026-05-05 15:02 | 38.62570 | 27.20571 | 35035 ft | 491 kts | 126° |
| 2026-05-05 15:02 | 38.58453 | 27.27541 | 35028 ft | 491 kts | 126° |
| 2026-05-05 15:03 | 38.54364 | 27.34457 | 35016 ft | 490 kts | 126° |
| 2026-05-05 15:03 | 38.50247 | 27.41393 | 35015 ft | 489 kts | 126° |
| 2026-05-05 15:04 | 38.46131 | 27.48304 | 35035 ft | 489 kts | 126° |
| 2026-05-05 15:04 | 38.42016 | 27.55202 | 35027 ft | 488 kts | 126° |
| 2026-05-05 15:05 | 38.35834 | 27.65544 | 35030 ft | 489 kts | 126° |
| 2026-05-05 15:06 | 38.31695 | 27.72452 | 34774 ft | 495 kts | 126° |
| 2026-05-05 15:06 | 38.29600 | 27.75942 | 34517 ft | 495 kts | 126° |
| 2026-05-05 15:06 | 38.27475 | 27.79385 | 33909 ft | 495 kts | 130° |
| 2026-05-05 15:06 | 38.25054 | 27.82490 | 33291 ft | 495 kts | 140° |
| 2026-05-05 15:07 | 38.22313 | 27.85087 | 32884 ft | 488 kts | 145° |
| 2026-05-05 15:07 | 38.19526 | 27.87537 | 32398 ft | 485 kts | 146° |
| 2026-05-05 15:07 | 38.16760 | 27.89951 | 31954 ft | 481 kts | 146° |
| 2026-05-05 15:07 | 38.14011 | 27.92360 | 31503 ft | 477 kts | 146° |
| 2026-05-05 15:08 | 38.11296 | 27.94758 | 31066 ft | 474 kts | 146° |
| 2026-05-05 15:08 | 38.08604 | 27.97151 | 30632 ft | 471 kts | 146° |
| 2026-05-05 15:08 | 38.05935 | 27.99533 | 30199 ft | 468 kts | 145° |
| 2026-05-05 15:08 | 38.03277 | 28.01910 | 29691 ft | 465 kts | 146° |
| 2026-05-05 15:09 | 38.00645 | 28.04262 | 29225 ft | 461 kts | 146° |
| 2026-05-05 15:09 | 37.98070 | 28.06561 | 28781 ft | 456 kts | 146° |
| 2026-05-05 15:09 | 37.95489 | 28.08865 | 28338 ft | 452 kts | 146° |
| 2026-05-05 15:09 | 37.92930 | 28.11146 | 27888 ft | 448 kts | 146° |
| 2026-05-05 15:10 | 37.90381 | 28.13415 | 27454 ft | 444 kts | 146° |
| 2026-05-05 15:10 | 37.87860 | 28.15656 | 27008 ft | 441 kts | 146° |
| 2026-05-05 15:10 | 37.85364 | 28.17874 | 26575 ft | 437 kts | 147° |
| 2026-05-05 15:10 | 37.82879 | 28.20079 | 26144 ft | 434 kts | 147° |
| 2026-05-05 15:11 | 37.80418 | 28.22262 | 25725 ft | 431 kts | 147° |
| 2026-05-05 15:11 | 37.77970 | 28.24431 | 25292 ft | 428 kts | 147° |
| 2026-05-05 15:11 | 37.75537 | 28.26585 | 24870 ft | 426 kts | 147° |
| 2026-05-05 15:11 | 37.73118 | 28.28725 | 24451 ft | 423 kts | 147° |
| 2026-05-05 15:12 | 37.70718 | 28.30846 | 24043 ft | 420 kts | 147° |
| 2026-05-05 15:12 | 37.68331 | 28.32955 | 23637 ft | 418 kts | 147° |
| 2026-05-05 15:12 | 37.65953 | 28.35053 | 23132 ft | 416 kts | 147° |
| 2026-05-05 15:12 | 37.63589 | 28.37138 | 22685 ft | 413 kts | 147° |
| 2026-05-05 15:13 | 37.61244 | 28.39205 | 22259 ft | 409 kts | 147° |
| 2026-05-05 15:13 | 37.58919 | 28.41252 | 21852 ft | 406 kts | 147° |
| 2026-05-05 15:13 | 37.56610 | 28.43284 | 21436 ft | 403 kts | 147° |
| 2026-05-05 15:13 | 37.54322 | 28.45297 | 21026 ft | 400 kts | 147° |
| 2026-05-05 15:14 | 37.52077 | 28.47268 | 20634 ft | 397 kts | 147° |
| 2026-05-05 15:14 | 37.49813 | 28.49243 | 20206 ft | 394 kts | 149° |
| 2026-05-05 15:14 | 37.47356 | 28.50664 | 19799 ft | 386 kts | 169° |
| 2026-05-05 15:14 | 37.44764 | 28.51409 | 19466 ft | 381 kts | 170° |
| 2026-05-05 15:15 | 37.42184 | 28.52159 | 19065 ft | 380 kts | 169° |
| 2026-05-05 15:15 | 37.39616 | 28.52930 | 18675 ft | 378 kts | 169° |
| 2026-05-05 15:15 | 37.37064 | 28.53714 | 18269 ft | 378 kts | 168° |
| 2026-05-05 15:15 | 37.34516 | 28.54506 | 17815 ft | 377 kts | 168° |
| 2026-05-05 15:16 | 37.31984 | 28.55296 | 17392 ft | 374 kts | 168° |
| 2026-05-05 15:16 | 37.29467 | 28.56080 | 17002 ft | 371 kts | 168° |
| 2026-05-05 15:16 | 37.26967 | 28.56858 | 16613 ft | 368 kts | 168° |
| 2026-05-05 15:16 | 37.24489 | 28.57629 | 16299 ft | 363 kts | 168° |
| 2026-05-05 15:17 | 37.22075 | 28.58379 | 16252 ft | 350 kts | 168° |
| 2026-05-05 15:17 | 37.19760 | 28.59099 | 16146 ft | 336 kts | 168° |
| 2026-05-05 15:17 | 37.17542 | 28.59788 | 15979 ft | 325 kts | 168° |
| 2026-05-05 15:17 | 37.15386 | 28.60563 | 15642 ft | 323 kts | 157° |
| 2026-05-05 15:18 | 37.13582 | 28.62219 | 15202 ft | 324 kts | 129° |
| 2026-05-05 15:18 | 37.12501 | 28.64656 | 14827 ft | 319 kts | 104° |
| 2026-05-05 15:18 | 37.12214 | 28.67360 | 14471 ft | 310 kts | 82° |
| 2026-05-05 15:18 | 37.12529 | 28.70004 | 14027 ft | 306 kts | 76° |
| 2026-05-05 15:19 | 37.12928 | 28.72617 | 13568 ft | 305 kts | 76° |
| 2026-05-05 15:19 | 37.13318 | 28.75231 | 13197 ft | 305 kts | 76° |
| 2026-05-05 15:19 | 37.13692 | 28.77829 | 12939 ft | 300 kts | 76° |
| 2026-05-05 15:19 | 37.14053 | 28.80368 | 12598 ft | 300 kts | 77° |
| 2026-05-05 15:20 | 37.14412 | 28.82930 | 12340 ft | 297 kts | 77° |
| 2026-05-05 15:20 | 37.14770 | 28.85491 | 12158 ft | 292 kts | 76° |
| 2026-05-05 15:20 | 37.15115 | 28.87955 | 11935 ft | 289 kts | 77° |
| 2026-05-05 15:20 | 37.15458 | 28.90419 | 11725 ft | 285 kts | 76° |
| 2026-05-05 15:21 | 37.15784 | 28.92843 | 11580 ft | 277 kts | 80° |
| 2026-05-05 15:21 | 37.15597 | 28.95204 | 11341 ft | 276 kts | 110° |
| 2026-05-05 15:21 | 37.14565 | 28.97198 | 11081 ft | 271 kts | 135° |
| 2026-05-05 15:21 | 37.13183 | 28.98766 | 10826 ft | 265 kts | 138° |
| 2026-05-05 15:22 | 37.11826 | 29.00262 | 10577 ft | 256 kts | 138° |
| 2026-05-05 15:22 | 37.10527 | 29.01702 | 10387 ft | 243 kts | 137° |
| 2026-05-05 15:22 | 37.09279 | 29.03093 | 10027 ft | 238 kts | 137° |
| 2026-05-05 15:22 | 37.08034 | 29.04486 | 9531 ft | 242 kts | 137° |
| 2026-05-05 15:23 | 37.06602 | 29.05559 | 9098 ft | 241 kts | 168° |
| 2026-05-05 15:23 | 37.04976 | 29.05485 | 8607 ft | 239 kts | 201° |
| 2026-05-05 15:23 | 37.03495 | 29.04590 | 8194 ft | 235 kts | 212° |
| 2026-05-05 15:23 | 37.02087 | 29.03545 | 7720 ft | 236 kts | 213° |
| 2026-05-05 15:24 | 37.00685 | 29.02492 | 7248 ft | 235 kts | 213° |
| 2026-05-05 15:24 | 36.99284 | 29.01451 | 6774 ft | 233 kts | 212° |
| 2026-05-05 15:24 | 36.97912 | 29.00432 | 6379 ft | 228 kts | 212° |
| 2026-05-05 15:24 | 36.96534 | 28.99413 | 5861 ft | 230 kts | 212° |
| 2026-05-05 15:25 | 36.95162 | 28.98406 | 5368 ft | 228 kts | 212° |
| 2026-05-05 15:25 | 36.93827 | 28.97411 | 4997 ft | 215 kts | 217° |
| 2026-05-05 15:25 | 36.92714 | 28.96290 | 4767 ft | 197 kts | 223° |
| 2026-05-05 15:25 | 36.91718 | 28.95197 | 4530 ft | 188 kts | 225° |
| 2026-05-05 15:26 | 36.90723 | 28.94111 | 4345 ft | 191 kts | 225° |
| 2026-05-05 15:26 | 36.89736 | 28.93046 | 4164 ft | 189 kts | 224° |
| 2026-05-05 15:26 | 36.88735 | 28.91979 | 3953 ft | 185 kts | 224° |
| 2026-05-05 15:26 | 36.87777 | 28.90957 | 3840 ft | 179 kts | 223° |
| 2026-05-05 15:27 | 36.86853 | 28.89975 | 3590 ft | 170 kts | 223° |
| 2026-05-05 15:27 | 36.85925 | 28.88989 | 3453 ft | 179 kts | 224° |
| 2026-05-05 15:27 | 36.84893 | 28.88095 | 3247 ft | 181 kts | 213° |
| 2026-05-05 15:27 | 36.83822 | 28.87324 | 2938 ft | 174 kts | 212° |
| 2026-05-05 15:28 | 36.82795 | 28.86589 | 2696 ft | 165 kts | 212° |
| 2026-05-05 15:28 | 36.81826 | 28.85884 | 2457 ft | 157 kts | 214° |
| 2026-05-05 15:28 | 36.80998 | 28.85040 | 2236 ft | 153 kts | 226° |
| 2026-05-05 15:28 | 36.80276 | 28.84072 | 1972 ft | 154 kts | 229° |
| 2026-05-05 15:29 | 36.79585 | 28.83039 | 1687 ft | 154 kts | 230° |
| 2026-05-05 15:29 | 36.78828 | 28.82083 | 1332 ft | 156 kts | 222° |
| 2026-05-05 15:29 | 36.77861 | 28.81404 | 1038 ft | 165 kts | 199° |
| 2026-05-05 15:29 | 36.76759 | 28.81108 | 847 ft | 158 kts | 195° |
| 2026-05-05 15:30 | 36.75718 | 28.80770 | 660 ft | 150 kts | 199° |
| 2026-05-05 15:30 | 36.75069 | 28.80532 | 536 ft | 144 kts | 197° |
| 2026-05-05 15:30 | 36.73759 | 28.80088 | 293 ft | 147 kts | 197° |
| 2026-05-05 15:30 | 36.72789 | 28.79754 | 100 ft | 144 kts | 197° |
| 2026-05-05 15:31 | 36.71851 | 28.79434 | 11 ft | 124 kts | 195° |
| 2026-05-05 15:31 | 36.71223 | 28.79220 | 12 ft | 62 kts | 195° |
| 2026-05-05 15:31 | 36.71001 | 28.79144 | 12 ft | 46 kts | 195° |
| 2026-05-05 15:31 | 36.70740 | 28.79047 | 12 ft | 30 kts | 209° |
| 2026-05-05 15:32 | 36.70602 | 28.78907 | 12 ft | 19 kts | 224° |
| 2026-05-05 15:32 | 36.70588 | 28.78809 | 12 ft | 13 kts | 328° |
| 2026-05-05 15:32 | 36.70684 | 28.78822 | 12 ft | 16 kts | 15° |
| 2026-05-05 15:32 | 36.70795 | 28.78859 | 12 ft | 16 kts | 15° |
| 2026-05-05 15:33 | 36.70903 | 28.78895 | 12 ft | 16 kts | 15° |
| 2026-05-05 15:33 | 36.71005 | 28.78931 | 12 ft | 15 kts | 17° |
| 2026-05-05 15:33 | 36.71107 | 28.78967 | 12 ft | 16 kts | 15° |
| 2026-05-05 15:33 | 36.71218 | 28.79005 | 12 ft | 17 kts | 15° |
| 2026-05-05 15:34 | 36.71325 | 28.79042 | 12 ft | 16 kts | 15° |
| 2026-05-05 15:34 | 36.71436 | 28.79079 | 12 ft | 18 kts | 15° |
| 2026-05-05 15:34 | 36.71562 | 28.79120 | 11 ft | 19 kts | 15° |
| 2026-05-05 15:34 | 36.71673 | 28.79159 | 11 ft | 18 kts | 15° |
| 2026-05-05 15:35 | 36.71787 | 28.79198 | 11 ft | 14 kts | 15° |
| 2026-05-05 15:35 | 36.71868 | 28.79185 | 11 ft | 12 kts | 309° |
| 2026-05-05 15:35 | 36.71889 | 28.79088 | 11 ft | 11 kts | 282° |
| 2026-05-05 15:35 | 36.71940 | 28.79032 | 11 ft | 11 kts | 6° |
| 2026-05-05 15:36 | 36.72021 | 28.79057 | 11 ft | 13 kts | 16° |
| 2026-05-05 15:36 | 36.72116 | 28.79090 | 11 ft | 14 kts | 15° |
| 2026-05-05 15:36 | 36.72209 | 28.79122 | 11 ft | 14 kts | 15° |
| 2026-05-05 15:36 | 36.72300 | 28.79153 | 11 ft | 13 kts | 15° |
| 2026-05-05 15:37 | 36.72361 | 28.79147 | 12 ft | 8 kts | 304° |
| 2026-05-05 15:37 | 36.72376 | 28.79091 | 13 ft | 3 kts | 285° |
| 2026-05-05 15:37 | 36.72376 | 28.79087 | 13 ft | 0 kts | 285° |